createdAt,value
2022-11-05T00:00:08.294Z,67.82
2022-11-05T00:02:34.690Z,68.21
2022-11-05T00:05:01.077Z,67.06
2022-11-05T00:07:30.032Z,67.15
2022-11-05T00:09:56.523Z,65.88
2022-11-05T00:12:22.974Z,65.91
2022-11-05T00:14:49.388Z,66.83
2022-11-05T00:17:15.825Z,66.35
2022-11-05T00:19:42.223Z,66.96
2022-11-05T00:22:08.649Z,68.34
2022-11-05T00:24:35.051Z,66.79
2022-11-05T00:27:01.462Z,67.97
2022-11-05T00:29:27.853Z,67.36
2022-11-05T00:31:54.255Z,67.04
2022-11-05T00:34:20.683Z,67.32
2022-11-05T00:36:47.097Z,67.77
2022-11-05T00:39:13.517Z,66.77
2022-11-05T00:41:40.835Z,65.73
2022-11-05T00:44:08.677Z,66.86
2022-11-05T00:46:36.029Z,65.40
2022-11-05T00:49:03.637Z,66.86
2022-11-05T00:51:30.049Z,66.70
2022-11-05T00:53:56.450Z,66.91
2022-11-05T00:56:22.827Z,66.52
2022-11-05T00:58:49.226Z,67.24
2022-11-05T01:01:15.719Z,67.99
2022-11-05T01:03:45.075Z,67.87
2022-11-05T01:06:13.881Z,67.16
2022-11-05T01:08:40.280Z,67.90
2022-11-05T01:11:06.668Z,67.25
2022-11-05T01:13:33.055Z,68.36
2022-11-05T01:15:59.451Z,69.36
2022-11-05T01:18:25.897Z,68.14
2022-11-05T01:20:52.279Z,68.92
2022-11-05T01:23:19.083Z,68.87
2022-11-05T01:25:45.807Z,69.20
2022-11-05T01:28:12.213Z,69.32
2022-11-05T01:30:38.579Z,69.79
2022-11-05T01:33:04.986Z,69.73
2022-11-05T01:35:31.398Z,70.06
2022-11-05T01:37:57.817Z,69.68
2022-11-05T01:40:24.227Z,68.89
2022-11-05T01:42:50.649Z,69.02
2022-11-05T01:45:17.030Z,70.48
2022-11-05T01:47:43.433Z,69.41
2022-11-05T01:50:09.834Z,69.56
2022-11-05T01:52:36.360Z,69.62
2022-11-05T01:55:02.753Z,70.61
2022-11-05T01:57:29.162Z,70.45
2022-11-05T01:59:55.557Z,70.10
2022-11-05T02:02:22.098Z,70.79
2022-11-05T02:04:48.575Z,70.29
2022-11-05T02:07:14.986Z,69.33
2022-11-05T02:09:41.430Z,69.42
2022-11-05T02:12:07.844Z,69.31
2022-11-05T02:14:34.235Z,69.21
2022-11-05T02:17:00.640Z,69.76
2022-11-05T02:19:27.054Z,69.57
2022-11-05T02:21:53.454Z,69.41
2022-11-05T02:24:19.886Z,69.76
2022-11-05T02:26:46.275Z,68.95
2022-11-05T02:29:12.667Z,69.82
2022-11-05T02:31:39.062Z,70.03
2022-11-05T02:34:05.483Z,69.79
2022-11-05T02:36:31.873Z,69.58
2022-11-05T02:38:58.270Z,68.54
2022-11-05T02:41:24.673Z,69.40
2022-11-05T02:43:51.069Z,69.17
2022-11-05T02:46:17.461Z,69.28
2022-11-05T02:48:43.828Z,69.33
2022-11-05T02:51:10.216Z,69.75
2022-11-05T02:53:36.585Z,68.90
2022-11-05T02:56:03.109Z,68.93
2022-11-05T02:58:29.513Z,69.91
2022-11-05T03:00:55.903Z,69.46
2022-11-05T03:03:22.324Z,70.15
2022-11-05T03:05:48.745Z,69.88
2022-11-05T03:08:15.136Z,70.00
2022-11-05T03:10:41.566Z,69.99
2022-11-05T03:13:08.173Z,70.50
2022-11-05T03:15:34.666Z,70.25
2022-11-05T03:18:01.070Z,70.82
2022-11-05T03:20:27.452Z,70.70
2022-11-05T03:22:53.854Z,70.52
2022-11-05T03:25:20.258Z,70.38
2022-11-05T03:27:46.668Z,70.52
2022-11-05T03:30:13.057Z,70.83
2022-11-05T03:32:39.480Z,71.09
2022-11-05T03:35:05.870Z,71.39
2022-11-05T03:37:32.272Z,71.91
2022-11-05T03:39:58.671Z,72.44
2022-11-05T03:42:25.058Z,71.68
2022-11-05T03:44:51.466Z,72.38
2022-11-05T03:47:17.867Z,71.95
2022-11-05T03:49:44.245Z,72.55
2022-11-05T03:52:10.639Z,72.33
2022-11-05T03:54:37.039Z,72.75
2022-11-05T03:57:03.430Z,73.24
2022-11-05T03:59:29.843Z,72.77
2022-11-05T04:01:56.396Z,72.88
2022-11-05T04:04:22.842Z,72.91
2022-11-05T04:06:49.241Z,73.23
2022-11-05T04:09:15.627Z,73.06
2022-11-05T04:11:42.043Z,72.64
2022-11-05T04:14:08.412Z,72.52
2022-11-05T04:16:34.813Z,72.33
2022-11-05T04:19:01.233Z,72.95
2022-11-05T04:21:27.633Z,72.66
2022-11-05T04:23:54.030Z,72.32
2022-11-05T04:26:20.424Z,72.08
2022-11-05T04:28:46.860Z,72.49
2022-11-05T04:31:13.261Z,72.94
2022-11-05T04:33:39.669Z,71.95
2022-11-05T04:36:06.073Z,72.42
2022-11-05T04:38:32.486Z,72.77
2022-11-05T04:40:58.904Z,72.68
2022-11-05T04:43:25.321Z,72.75
2022-11-05T04:45:51.728Z,72.93
2022-11-05T04:48:18.102Z,72.87
2022-11-05T04:50:44.510Z,72.79
2022-11-05T04:53:11.133Z,72.75
2022-11-05T04:55:37.682Z,72.44
2022-11-05T04:58:04.074Z,72.52
2022-11-05T05:00:30.474Z,72.60
2022-11-05T05:02:56.904Z,72.50
2022-11-05T05:05:23.313Z,72.55
2022-11-05T05:07:49.722Z,72.13
2022-11-05T05:10:16.138Z,71.15
2022-11-05T05:12:42.538Z,71.55
2022-11-05T05:15:08.912Z,72.19
2022-11-05T05:17:35.291Z,72.31
2022-11-05T05:20:01.683Z,72.72
2022-11-05T05:22:28.059Z,72.38
2022-11-05T05:24:54.515Z,72.05
2022-11-05T05:27:20.888Z,71.48
2022-11-05T05:29:47.281Z,70.86
2022-11-05T05:32:13.665Z,71.48
2022-11-05T05:34:40.048Z,72.04
2022-11-05T05:37:06.436Z,71.43
2022-11-05T05:39:32.835Z,71.94
2022-11-05T05:41:59.266Z,72.27
2022-11-05T05:44:25.681Z,72.18
2022-11-05T05:46:52.070Z,72.54
2022-11-05T05:49:18.484Z,72.72
2022-11-05T05:51:44.871Z,72.90
2022-11-05T05:54:11.255Z,72.01
2022-11-05T05:56:37.668Z,71.90
2022-11-05T05:59:04.079Z,72.61
2022-11-05T06:01:30.504Z,72.64
2022-11-05T06:03:56.914Z,72.81
2022-11-05T06:06:23.346Z,72.86
2022-11-05T06:08:49.739Z,72.49
2022-11-05T06:11:16.166Z,71.98
2022-11-05T06:13:42.626Z,71.67
2022-11-05T06:16:09.005Z,71.67
2022-11-05T06:18:35.391Z,71.70
2022-11-05T06:21:01.808Z,71.30
2022-11-05T06:23:28.251Z,71.60
2022-11-05T06:25:54.672Z,72.11
2022-11-05T06:28:21.129Z,71.89
2022-11-05T06:30:47.750Z,72.20
2022-11-05T06:33:14.298Z,71.82
2022-11-05T06:35:40.840Z,71.76
2022-11-05T06:38:07.245Z,72.54
2022-11-05T06:40:33.656Z,71.74
2022-11-05T06:43:00.108Z,72.01
2022-11-05T06:45:26.527Z,72.35
2022-11-05T06:47:52.939Z,72.43
2022-11-05T06:50:19.340Z,71.98
2022-11-05T06:52:45.751Z,71.64
2022-11-05T06:55:12.161Z,70.44
2022-11-05T06:57:38.580Z,71.80
2022-11-05T07:00:08.086Z,72.00
2022-11-05T07:02:34.698Z,72.46
2022-11-05T07:05:01.129Z,70.91
2022-11-05T07:07:27.529Z,71.36
2022-11-05T07:09:53.961Z,71.43
2022-11-05T07:12:20.353Z,70.22
2022-11-05T07:14:46.765Z,69.97
2022-11-05T07:17:13.154Z,69.56
2022-11-05T07:19:39.608Z,69.82
2022-11-05T07:22:06.001Z,70.01
2022-11-05T07:24:32.464Z,70.70
2022-11-05T07:26:58.929Z,71.42
2022-11-05T07:29:25.338Z,71.44
2022-11-05T07:31:51.753Z,70.64
2022-11-05T07:34:18.202Z,68.34
2022-11-05T07:36:44.634Z,68.71
2022-11-05T07:39:11.062Z,68.18
2022-11-05T07:41:37.445Z,69.62
2022-11-05T07:44:03.854Z,70.37
2022-11-05T07:46:30.257Z,70.45
2022-11-05T07:48:56.643Z,68.42
2022-11-05T07:51:23.071Z,69.49
2022-11-05T07:53:49.483Z,70.10
2022-11-05T07:56:15.891Z,70.76
2022-11-05T07:58:42.292Z,71.31
2022-11-05T08:01:08.827Z,70.59
2022-11-05T08:03:35.439Z,69.35
2022-11-05T08:06:01.909Z,68.81
2022-11-05T08:08:28.375Z,68.56
2022-11-05T08:10:54.787Z,69.44
2022-11-05T08:13:21.210Z,69.74
2022-11-05T08:15:47.622Z,69.58
2022-11-05T08:18:14.022Z,70.71
2022-11-05T08:20:40.431Z,70.36
2022-11-05T08:23:06.821Z,69.06
2022-11-05T08:25:33.236Z,67.88
2022-11-05T08:27:59.641Z,66.78
2022-11-05T08:30:26.060Z,64.44
2022-11-05T08:32:52.451Z,64.38
2022-11-05T08:35:18.909Z,62.63
2022-11-05T08:37:45.312Z,61.28
2022-11-05T08:40:11.737Z,61.70
2022-11-05T08:42:38.156Z,61.64
2022-11-05T08:45:04.562Z,59.79
2022-11-05T08:47:30.945Z,58.99
2022-11-05T08:49:57.333Z,60.57
2022-11-05T08:52:23.720Z,60.45
2022-11-05T08:54:50.206Z,58.39
2022-11-05T08:57:16.575Z,57.66
2022-11-05T08:59:42.965Z,57.20
2022-11-05T09:02:09.468Z,58.40
2022-11-05T09:04:35.989Z,59.60
2022-11-05T09:07:02.388Z,56.92
2022-11-05T09:09:28.851Z,55.46
2022-11-05T09:12:11.647Z,54.42
2022-11-05T09:14:38.922Z,57.84
2022-11-05T09:17:05.325Z,58.30
2022-11-05T09:19:31.745Z,58.97
2022-11-05T09:21:58.145Z,59.84
2022-11-05T09:24:24.792Z,56.68
2022-11-05T09:26:51.187Z,52.76
2022-11-05T09:29:17.568Z,52.53
2022-11-05T09:31:43.984Z,55.60
2022-11-05T09:34:10.365Z,55.94
2022-11-05T09:36:36.757Z,54.91
2022-11-05T09:39:03.170Z,54.55
2022-11-05T09:41:29.884Z,57.47
2022-11-05T09:43:56.411Z,58.24
2022-11-05T09:46:22.808Z,58.72
2022-11-05T09:48:49.221Z,57.40
2022-11-05T09:51:20.817Z,54.97
2022-11-05T09:53:49.984Z,57.89
2022-11-05T09:56:16.381Z,57.43
2022-11-05T09:58:42.824Z,56.78
2022-11-05T10:01:09.261Z,57.76
2022-11-05T10:03:35.739Z,58.15
2022-11-05T10:06:02.172Z,57.23
2022-11-05T10:08:28.585Z,58.36
2022-11-05T10:10:55.160Z,57.09
2022-11-05T10:13:21.638Z,57.43
2022-11-05T10:15:48.056Z,55.36
2022-11-05T10:18:14.446Z,52.82
2022-11-05T10:20:40.828Z,54.45
2022-11-05T10:23:07.251Z,52.41
2022-11-05T10:25:33.661Z,53.17
2022-11-05T10:28:00.098Z,52.93
2022-11-05T10:30:26.567Z,52.32
2022-11-05T10:32:52.976Z,54.03
2022-11-05T10:35:21.786Z,54.27
2022-11-05T10:37:48.165Z,54.99
2022-11-05T10:40:14.578Z,53.96
2022-11-05T10:42:40.998Z,52.94
2022-11-05T10:45:07.394Z,49.05
2022-11-05T10:47:33.842Z,51.92
2022-11-05T10:50:00.281Z,50.37
2022-11-05T10:52:26.698Z,51.40
2022-11-05T10:54:53.153Z,52.55
2022-11-05T10:57:19.552Z,52.43
2022-11-05T10:59:45.960Z,52.46
2022-11-05T11:02:12.358Z,53.52
2022-11-05T11:04:38.792Z,54.84
2022-11-05T11:07:05.197Z,53.62
2022-11-05T11:09:31.592Z,52.29
2022-11-05T11:11:57.977Z,54.41
2022-11-05T11:14:24.388Z,52.77
2022-11-05T11:16:50.781Z,53.01
2022-11-05T11:19:17.188Z,50.99
2022-11-05T11:21:43.584Z,50.67
2022-11-05T11:24:09.989Z,49.43
2022-11-05T11:26:36.393Z,47.40
2022-11-05T11:29:02.832Z,49.82
2022-11-05T11:31:29.260Z,49.80
2022-11-05T11:33:55.669Z,49.67
2022-11-05T11:36:22.088Z,48.75
2022-11-05T11:38:48.488Z,49.50
2022-11-05T11:41:14.986Z,48.46
2022-11-05T11:43:41.378Z,50.42
2022-11-05T11:46:11.191Z,48.32
2022-11-05T11:48:40.476Z,49.64
2022-11-05T11:51:06.869Z,47.35
2022-11-05T11:53:33.274Z,48.83
2022-11-05T11:55:59.691Z,46.80
2022-11-05T11:58:26.118Z,46.81
2022-11-05T12:00:52.525Z,46.80
2022-11-05T12:03:19.330Z,45.36
2022-11-05T12:05:46.124Z,47.03
2022-11-05T12:08:12.523Z,49.00
2022-11-05T12:10:38.939Z,49.04
2022-11-05T12:13:05.364Z,47.44
2022-11-05T12:15:31.777Z,48.18
2022-11-05T12:17:58.186Z,48.11
2022-11-05T12:20:24.585Z,47.28
2022-11-05T12:22:50.984Z,49.44
2022-11-05T12:25:17.418Z,49.60
2022-11-05T12:27:43.830Z,48.57
2022-11-05T12:30:10.262Z,48.90
2022-11-05T12:32:36.689Z,49.72
2022-11-05T12:35:03.129Z,50.14
2022-11-05T12:37:29.544Z,49.39
2022-11-05T12:39:55.927Z,48.88
2022-11-05T12:42:22.312Z,46.68
2022-11-05T12:44:48.711Z,47.10
2022-11-05T12:47:15.108Z,47.01
2022-11-05T12:49:41.485Z,45.17
2022-11-05T12:52:07.909Z,45.85
2022-11-05T12:54:34.306Z,44.75
2022-11-05T12:57:00.707Z,46.70
2022-11-05T12:59:27.084Z,47.71
2022-11-05T13:01:53.612Z,50.42
2022-11-05T13:04:20.113Z,48.18
2022-11-05T13:06:46.509Z,50.24
2022-11-05T13:09:12.922Z,47.66
2022-11-05T13:11:39.398Z,48.18
2022-11-05T13:14:05.782Z,48.04
2022-11-05T13:16:32.173Z,48.09
2022-11-05T13:18:58.585Z,47.31
2022-11-05T13:21:24.969Z,47.42
2022-11-05T13:23:51.379Z,47.54
2022-11-05T13:26:19.830Z,46.86
2022-11-05T13:28:46.445Z,46.47
2022-11-05T13:31:12.829Z,47.73
2022-11-05T13:33:39.223Z,46.55
2022-11-05T13:36:05.604Z,45.99
2022-11-05T13:38:32.009Z,45.74
2022-11-05T13:40:58.387Z,47.51
2022-11-05T13:43:25.335Z,46.78
2022-11-05T13:45:51.766Z,48.85
2022-11-05T13:48:18.158Z,47.38
2022-11-05T13:50:44.536Z,46.84
2022-11-05T13:53:11.260Z,48.01
2022-11-05T13:55:37.768Z,47.19
2022-11-05T13:58:04.147Z,45.92
2022-11-05T14:00:30.546Z,48.32
2022-11-05T14:02:56.919Z,48.60
2022-11-05T14:05:23.311Z,48.14
2022-11-05T14:07:49.697Z,48.51
2022-11-05T14:10:16.076Z,46.75
2022-11-05T14:12:42.453Z,47.82
2022-11-05T14:15:08.836Z,48.63
2022-11-05T14:17:35.231Z,49.37
2022-11-05T14:20:01.631Z,52.40
2022-11-05T14:22:28.025Z,50.82
2022-11-05T14:24:54.404Z,48.17
2022-11-05T14:27:20.799Z,50.18
2022-11-05T14:29:47.181Z,49.43
2022-11-05T14:32:13.616Z,50.11
2022-11-05T14:34:39.997Z,48.85
2022-11-05T14:37:06.385Z,50.23
2022-11-05T14:39:32.777Z,50.78
2022-11-05T14:41:59.183Z,48.96
2022-11-05T14:44:25.576Z,49.59
2022-11-05T14:46:51.984Z,48.21
2022-11-05T14:49:18.383Z,48.80
2022-11-05T14:51:44.765Z,47.91
2022-11-05T14:54:11.167Z,48.07
2022-11-05T14:56:37.560Z,46.08
2022-11-05T14:59:03.939Z,46.84
2022-11-05T15:01:30.479Z,48.32
2022-11-05T15:03:57.030Z,47.50
2022-11-05T15:06:24.676Z,47.52
2022-11-05T15:08:51.090Z,47.80
2022-11-05T15:11:17.485Z,47.36
2022-11-05T15:13:43.884Z,50.74
2022-11-05T15:16:10.271Z,51.68
2022-11-05T15:18:36.672Z,52.28
2022-11-05T15:21:03.099Z,52.38
2022-11-05T15:23:29.496Z,52.72
2022-11-05T15:25:55.891Z,53.17
2022-11-05T15:28:22.311Z,54.00
2022-11-05T15:30:48.713Z,54.21
2022-11-05T15:33:15.115Z,55.21
2022-11-05T15:35:41.525Z,53.99
2022-11-05T15:38:08.003Z,52.94
2022-11-05T15:40:34.425Z,54.48
2022-11-05T15:43:00.849Z,54.88
2022-11-05T15:45:27.265Z,54.96
2022-11-05T15:47:53.714Z,54.29
2022-11-05T15:50:20.126Z,56.40
2022-11-05T15:52:46.519Z,54.44
2022-11-05T15:55:12.936Z,57.68
2022-11-05T15:57:40.449Z,56.33
2022-11-05T16:00:07.085Z,56.36
2022-11-05T16:02:33.584Z,56.88
2022-11-05T16:05:00.127Z,55.92
2022-11-05T16:07:26.541Z,57.18
2022-11-05T16:09:52.943Z,57.34
2022-11-05T16:12:19.442Z,57.56
2022-11-05T16:14:45.884Z,58.13
2022-11-05T16:17:12.314Z,58.89
2022-11-05T16:19:40.618Z,58.98
2022-11-05T16:22:07.264Z,55.99
2022-11-05T16:24:33.810Z,57.25
2022-11-05T16:27:03.047Z,57.55
2022-11-05T16:29:29.983Z,57.30
2022-11-05T16:31:56.396Z,56.70
2022-11-05T16:34:22.806Z,55.06
2022-11-05T16:36:49.213Z,56.39
2022-11-05T16:39:15.601Z,56.41
2022-11-05T16:41:42.584Z,56.46
2022-11-05T16:44:09.000Z,57.39
2022-11-05T16:46:35.389Z,55.99
2022-11-05T16:49:01.801Z,56.86
2022-11-05T16:51:28.200Z,56.87
2022-11-05T16:53:54.589Z,57.75
2022-11-05T16:56:20.995Z,57.78
2022-11-05T16:58:47.383Z,57.67
2022-11-05T17:01:13.842Z,57.89
2022-11-05T17:03:40.268Z,57.86
2022-11-05T17:06:06.674Z,58.48
2022-11-05T17:08:33.113Z,58.54
2022-11-05T17:10:59.531Z,59.12
2022-11-05T17:13:25.922Z,57.91
2022-11-05T17:15:52.333Z,58.57
2022-11-05T17:18:19.441Z,59.37
2022-11-05T17:20:46.102Z,59.34
2022-11-05T17:23:12.862Z,59.22
2022-11-05T17:25:39.491Z,58.81
2022-11-05T17:28:05.924Z,58.89
2022-11-05T17:30:32.350Z,58.75
2022-11-05T17:32:58.825Z,58.01
2022-11-05T17:35:25.310Z,58.64
2022-11-05T17:37:51.696Z,58.76
2022-11-05T17:40:18.086Z,59.31
2022-11-05T17:42:44.492Z,59.43
2022-11-05T17:45:10.911Z,59.11
2022-11-05T17:47:37.302Z,59.78
2022-11-05T17:50:03.692Z,60.15
2022-11-05T17:52:30.107Z,60.07
2022-11-05T17:54:56.524Z,59.16
2022-11-05T17:57:22.950Z,58.73
2022-11-05T17:59:49.333Z,59.38
2022-11-05T18:02:15.846Z,59.76
2022-11-05T18:04:42.381Z,59.87
2022-11-05T18:07:08.784Z,59.33
2022-11-05T18:09:35.181Z,59.81
2022-11-05T18:12:01.598Z,59.24
2022-11-05T18:14:28.003Z,59.84
2022-11-05T18:16:54.398Z,59.70
2022-11-05T18:19:20.812Z,59.92
2022-11-05T18:21:47.211Z,59.58
2022-11-05T18:24:13.599Z,60.55
2022-11-05T18:26:39.993Z,59.96
2022-11-05T18:29:06.390Z,60.23
2022-11-05T18:31:32.814Z,60.49
2022-11-05T18:33:59.244Z,60.26
2022-11-05T18:36:25.648Z,59.76
2022-11-05T18:38:52.047Z,59.98
2022-11-05T18:41:18.580Z,60.60
2022-11-05T18:43:44.978Z,59.82
2022-11-05T18:46:29.409Z,60.23
2022-11-05T18:48:57.757Z,60.01
2022-11-05T18:51:24.150Z,60.84
2022-11-05T18:53:50.569Z,60.96
2022-11-05T18:56:16.979Z,60.58
2022-11-05T18:58:43.389Z,61.44
2022-11-05T19:01:09.848Z,60.96
2022-11-05T19:03:36.321Z,61.28
2022-11-05T19:06:02.737Z,60.69
2022-11-05T19:08:29.366Z,60.74
2022-11-05T19:10:55.819Z,60.85
2022-11-05T19:13:22.221Z,60.56
2022-11-05T19:15:48.651Z,59.88
2022-11-05T19:18:15.328Z,60.79
2022-11-05T19:20:41.854Z,61.48
2022-11-05T19:23:08.256Z,60.54
2022-11-05T19:25:34.665Z,61.63
2022-11-05T19:28:01.098Z,60.70
2022-11-05T19:30:27.504Z,60.24
2022-11-05T19:32:53.907Z,59.85
2022-11-05T19:35:20.340Z,59.45
2022-11-05T19:37:46.750Z,59.84
2022-11-05T19:40:13.145Z,59.86
2022-11-05T19:42:39.564Z,59.76
2022-11-05T19:45:30.173Z,59.76
2022-11-05T19:47:52.371Z,59.00
2022-11-05T19:50:18.807Z,59.47
2022-11-05T19:52:45.222Z,59.66
2022-11-05T19:55:12.413Z,60.45
2022-11-05T19:57:38.943Z,60.47
2022-11-05T20:00:05.348Z,60.18
2022-11-05T20:02:31.830Z,60.81
2022-11-05T20:04:58.356Z,60.56
2022-11-05T20:07:24.734Z,61.52
2022-11-05T20:09:51.137Z,61.57
2022-11-05T20:12:17.548Z,61.85
2022-11-05T20:14:43.931Z,61.52
2022-11-05T20:17:10.471Z,61.88
2022-11-05T20:19:36.881Z,61.45
2022-11-05T20:22:03.264Z,61.35
2022-11-05T20:24:29.768Z,61.54
2022-11-05T20:26:56.185Z,61.51
2022-11-05T20:29:22.603Z,62.59
2022-11-05T20:31:49.033Z,61.52
2022-11-05T20:34:15.472Z,61.54
2022-11-05T20:36:41.909Z,62.84
2022-11-05T20:39:08.303Z,63.48
2022-11-05T20:41:34.701Z,62.78
2022-11-05T20:44:01.099Z,63.43
2022-11-05T20:46:27.508Z,63.06
2022-11-05T20:48:53.929Z,62.70
2022-11-05T20:51:20.380Z,62.63
2022-11-05T20:53:46.783Z,63.09
2022-11-05T20:56:13.204Z,63.05
2022-11-05T20:58:39.593Z,63.13
2022-11-05T21:01:06.063Z,63.37
2022-11-05T21:03:32.525Z,62.15
2022-11-05T21:05:58.917Z,61.96
2022-11-05T21:08:25.331Z,62.06
2022-11-05T21:10:51.721Z,61.52
2022-11-05T21:13:18.130Z,62.00
2022-11-05T21:15:44.631Z,61.97
2022-11-05T21:18:11.182Z,62.53
2022-11-05T21:20:37.828Z,62.34
2022-11-05T21:23:04.246Z,63.41
2022-11-05T21:25:30.667Z,63.10
2022-11-05T21:27:57.072Z,62.89
2022-11-05T21:30:23.492Z,62.47
2022-11-05T21:32:49.905Z,63.87
2022-11-05T21:35:16.335Z,62.90
2022-11-05T21:37:42.726Z,63.81
2022-11-05T21:40:09.126Z,63.02
2022-11-05T21:42:35.523Z,62.96
2022-11-05T21:45:01.939Z,63.10
2022-11-05T21:47:28.350Z,63.16
2022-11-05T21:49:54.741Z,62.62
2022-11-05T21:52:21.122Z,62.89
2022-11-05T21:54:47.522Z,62.97
2022-11-05T21:57:13.911Z,62.66
2022-11-05T21:59:40.300Z,63.25
2022-11-05T22:02:06.851Z,63.09
2022-11-05T22:04:33.350Z,62.25
2022-11-05T22:06:59.759Z,62.91
2022-11-05T22:09:26.149Z,62.67
2022-11-05T22:11:52.570Z,62.90
2022-11-05T22:14:18.963Z,62.63
2022-11-05T22:16:45.345Z,63.93
2022-11-05T22:19:11.839Z,63.98
2022-11-05T22:21:38.226Z,64.43
2022-11-05T22:24:04.618Z,62.43
2022-11-05T22:26:31.021Z,63.62
2022-11-05T22:28:57.425Z,63.84
2022-11-05T22:31:23.799Z,63.41
2022-11-05T22:33:50.196Z,64.50
2022-11-05T22:36:16.573Z,63.36
2022-11-05T22:38:42.952Z,63.49
2022-11-05T22:41:09.337Z,63.72
2022-11-05T22:43:35.746Z,63.78
2022-11-05T22:46:02.132Z,64.17
2022-11-05T22:48:28.519Z,63.94
2022-11-05T22:50:54.925Z,64.48
2022-11-05T22:53:21.327Z,64.59
2022-11-05T22:55:47.732Z,64.51
2022-11-05T22:58:14.463Z,65.07
2022-11-05T23:00:41.094Z,66.00
2022-11-05T23:03:07.598Z,66.39
2022-11-05T23:05:34.097Z,65.28
2022-11-05T23:08:00.479Z,66.04
2022-11-05T23:10:26.923Z,65.75
2022-11-05T23:12:53.309Z,65.18
2022-11-05T23:15:19.796Z,65.23
2022-11-05T23:17:46.206Z,65.83
2022-11-05T23:20:12.584Z,65.55
2022-11-05T23:22:38.983Z,65.82
2022-11-05T23:25:05.358Z,66.38
2022-11-05T23:27:31.771Z,66.40
2022-11-05T23:29:58.293Z,67.07
2022-11-05T23:32:24.688Z,67.45
2022-11-05T23:34:51.089Z,66.04
2022-11-05T23:37:17.480Z,66.25
2022-11-05T23:39:43.890Z,65.81
2022-11-05T23:42:10.276Z,65.75
2022-11-05T23:44:36.656Z,65.43
2022-11-05T23:47:03.061Z,65.62
2022-11-05T23:49:29.441Z,65.41
2022-11-05T23:51:55.833Z,65.90
2022-11-05T23:54:22.228Z,66.75
2022-11-05T23:56:48.638Z,67.63
2022-11-05T23:59:15.030Z,67.51
